M02 weather

Dickson Municipal Airport
Dickson, Tennessee, United States

Public forecast

Using degrees Fahrenheit for public forecast. Weather courtesy of forecast.io.

METAR (pilot weather report)

Retrieved 2019/05/19 15:35 UTC (16 minutes ago):

KM02 191535Z AUTO 18011G17KT 10SM FEW110 22/17 A2988 RMK A01

TAF (pilot weather forecast)

Closest forecast is Clarksville–Montgomery County Regional Airport, 29.7 nm (54.9 km) N. Retrieved 2019/05/19 12:42 UTC (3 hours ago):

TAF KCKV 191140Z 1912/2012 18010KT P6SM VCSH SCT050 OVC100 FM191600 19015G26KT P6SM BKN250 FM191800 20017G26KT P6SM -SHRA VCTS OVC050CB FM200200 21010KT P6SM SCT050 OVC100 FM200300 19008KT P6SM BKN250